createdAt,value
2023-05-04T00:00:11.845Z,11.40
2023-05-04T00:02:58.726Z,11.50
2023-05-04T00:05:45.422Z,11.50
2023-05-04T00:08:33.054Z,11.40
2023-05-04T00:11:19.428Z,11.30
2023-05-04T00:14:06.420Z,11.40
2023-05-04T00:16:52.942Z,11.30
2023-05-04T00:19:42.104Z,11.30
2023-05-04T00:22:28.935Z,11.40
2023-05-04T00:25:16.947Z,11.40
2023-05-04T00:28:03.621Z,11.40
2023-05-04T00:30:50.451Z,11.40
2023-05-04T00:33:36.984Z,11.60
2023-05-04T00:36:23.983Z,11.50
2023-05-04T00:39:10.880Z,11.30
2023-05-04T00:41:58.681Z,11.30
2023-05-04T00:44:45.101Z,11.10
2023-05-04T00:47:31.595Z,11.00
2023-05-04T00:50:18.378Z,10.80
2023-05-04T00:53:10.155Z,10.70
2023-05-04T00:55:57.123Z,10.60
2023-05-04T00:58:45.230Z,10.70
2023-05-04T01:01:32.001Z,10.60
2023-05-04T01:04:18.890Z,10.40
2023-05-04T01:07:16.212Z,10.40
2023-05-04T01:10:06.052Z,10.40
2023-05-04T01:12:57.520Z,10.40
2023-05-04T01:15:46.068Z,10.50
2023-05-04T01:18:32.424Z,10.50
2023-05-04T01:21:21.231Z,10.50
2023-05-04T01:24:08.987Z,10.60
2023-05-04T01:26:58.813Z,10.70
2023-05-04T01:29:54.646Z,10.70
2023-05-04T01:32:43.648Z,10.80
2023-05-04T01:35:30.972Z,10.80
2023-05-04T01:38:17.724Z,10.60
2023-05-04T01:41:06.055Z,10.50
2023-05-04T01:43:54.044Z,10.30
2023-05-04T01:46:40.820Z,10.30
2023-05-04T01:49:27.762Z,10.40
2023-05-04T01:52:14.365Z,10.40
2023-05-04T01:55:01.022Z,10.50
2023-05-04T01:57:49.254Z,10.40
2023-05-04T02:00:36.209Z,10.10
2023-05-04T02:03:23.301Z,10.10
2023-05-04T02:06:10.049Z,10.10
2023-05-04T02:08:57.032Z,10.10
2023-05-04T02:11:43.644Z,10.00
2023-05-04T02:14:31.430Z,10.00
2023-05-04T02:17:17.979Z,10.10
2023-05-04T02:20:06.108Z,10.00
2023-05-04T02:22:52.684Z,9.80
2023-05-04T02:25:40.512Z,9.70
2023-05-04T02:28:28.630Z,9.50
2023-05-04T02:31:16.797Z,9.50
2023-05-04T02:34:03.302Z,9.50
2023-05-04T02:36:49.818Z,9.50
2023-05-04T02:39:36.318Z,9.80
2023-05-04T02:42:23.863Z,9.80
2023-05-04T02:45:11.168Z,9.90
2023-05-04T02:47:59.264Z,9.90
2023-05-04T02:50:46.671Z,9.80
2023-05-04T02:53:33.037Z,9.50
2023-05-04T02:56:19.446Z,9.40
2023-05-04T02:59:06.117Z,9.20
2023-05-04T03:01:53.007Z,9.10
2023-05-04T03:04:41.420Z,9.00
2023-05-04T03:07:29.535Z,9.00
2023-05-04T03:10:16.233Z,8.90
2023-05-04T03:13:06.129Z,8.90
2023-05-04T03:15:53.017Z,9.00
2023-05-04T03:18:39.926Z,9.10
2023-05-04T03:21:28.255Z,9.40
2023-05-04T03:24:15.754Z,9.50
2023-05-04T03:27:02.625Z,9.50
2023-05-04T03:29:49.235Z,9.70
2023-05-04T03:32:36.189Z,9.60
2023-05-04T03:35:25.042Z,9.50
2023-05-04T03:38:15.302Z,9.40
2023-05-04T03:41:03.570Z,9.40
2023-05-04T03:43:50.375Z,9.20
2023-05-04T03:46:38.552Z,9.30
2023-05-04T03:49:25.559Z,9.20
2023-05-04T03:52:12.212Z,9.20
2023-05-04T03:55:00.151Z,9.10
2023-05-04T03:57:47.162Z,9.10
2023-05-04T04:00:33.747Z,9.10
2023-05-04T04:03:28.889Z,9.10
2023-05-04T04:06:15.868Z,9.20
2023-05-04T04:09:02.837Z,9.30
2023-05-04T04:11:51.877Z,9.30
2023-05-04T04:14:38.334Z,9.40
2023-05-04T04:17:24.792Z,9.50
2023-05-04T04:20:13.864Z,9.60
2023-05-04T04:23:00.687Z,9.60
2023-05-04T04:25:47.131Z,9.60
2023-05-04T04:28:35.374Z,9.60
2023-05-04T04:31:22.415Z,9.50
2023-05-04T04:34:08.784Z,9.50
2023-05-04T04:36:55.708Z,9.60
2023-05-04T04:39:42.199Z,9.60
2023-05-04T04:42:29.048Z,9.80
2023-05-04T04:45:17.013Z,9.80
2023-05-04T04:48:05.084Z,9.90
2023-05-04T04:50:52.018Z,10.00
2023-05-04T04:53:38.699Z,10.10
2023-05-04T04:56:25.079Z,10.20
2023-05-04T04:59:11.703Z,10.20
2023-05-04T05:02:00.528Z,10.40
2023-05-04T05:04:48.118Z,10.50
2023-05-04T05:07:34.817Z,10.70
2023-05-04T05:10:22.214Z,10.80
2023-05-04T05:13:08.796Z,10.90
2023-05-04T05:15:55.714Z,11.00
2023-05-04T05:18:44.228Z,11.30
2023-05-04T05:21:31.082Z,11.60
2023-05-04T05:24:17.789Z,11.90
2023-05-04T05:27:04.801Z,12.10
2023-05-04T05:29:51.451Z,12.50
2023-05-04T05:32:38.028Z,12.90
2023-05-04T05:35:26.981Z,13.10
2023-05-04T05:38:13.666Z,13.30
2023-05-04T05:41:00.474Z,13.80
2023-05-04T05:43:47.197Z,14.30
2023-05-04T05:46:34.123Z,14.70
2023-05-04T05:49:20.992Z,15.00
2023-05-04T05:52:08.796Z,15.10
2023-05-04T05:54:55.502Z,15.20
2023-05-04T05:57:42.026Z,15.50
2023-05-04T06:00:28.863Z,15.40
2023-05-04T06:03:15.860Z,15.70
2023-05-04T06:06:02.544Z,15.90
2023-05-04T06:08:50.293Z,16.10
2023-05-04T06:11:36.967Z,16.40
2023-05-04T06:14:23.685Z,16.60
2023-05-04T06:17:10.332Z,16.20
2023-05-04T06:19:57.042Z,16.40
2023-05-04T06:22:43.592Z,16.90
2023-05-04T06:25:32.141Z,17.10
2023-05-04T06:28:19.082Z,17.40
2023-05-04T06:31:06.098Z,17.20
2023-05-04T06:33:52.762Z,17.30
2023-05-04T06:36:39.877Z,17.70
2023-05-04T06:39:26.536Z,18.00
2023-05-04T06:42:14.766Z,18.20
2023-05-04T06:45:02.230Z,18.30
2023-05-04T06:47:48.923Z,18.60
2023-05-04T06:50:36.229Z,18.50
2023-05-04T06:53:23.241Z,18.80
2023-05-04T06:56:09.786Z,19.20
2023-05-04T06:58:58.378Z,20.10
2023-05-04T07:01:45.453Z,19.60
2023-05-04T07:04:33.277Z,19.90
2023-05-04T07:07:19.667Z,20.00
2023-05-04T07:10:07.101Z,19.90
2023-05-04T07:12:54.078Z,19.50
2023-05-04T07:15:41.938Z,19.30
2023-05-04T07:18:28.716Z,19.30
2023-05-04T07:21:27.705Z,18.90
2023-05-04T07:24:15.185Z,19.00
2023-05-04T07:27:01.920Z,19.80
2023-05-04T07:29:50.689Z,20.00
2023-05-04T07:32:38.793Z,20.00
2023-05-04T07:35:25.373Z,20.40
2023-05-04T07:38:12.301Z,20.80
2023-05-04T07:40:58.820Z,21.30
2023-05-04T07:43:45.796Z,21.20
2023-05-04T07:46:32.378Z,20.60
2023-05-04T07:49:20.611Z,20.80
2023-05-04T07:52:07.229Z,21.00
2023-05-04T07:54:54.180Z,20.70
2023-05-04T07:57:41.280Z,21.00
2023-05-04T08:00:28.148Z,21.40
2023-05-04T08:03:14.448Z,21.80
2023-05-04T08:06:02.748Z,21.80
2023-05-04T08:08:51.997Z,22.20
2023-05-04T08:11:40.986Z,21.90
2023-05-04T08:14:27.887Z,22.60
2023-05-04T08:17:14.255Z,22.70
2023-05-04T08:20:01.109Z,23.10
2023-05-04T08:22:49.881Z,22.70
2023-05-04T08:25:36.666Z,22.70
2023-05-04T08:28:23.272Z,21.70
2023-05-04T08:31:10.999Z,21.90
2023-05-04T08:33:58.048Z,22.40
2023-05-04T08:36:44.859Z,22.60
2023-05-04T08:39:32.754Z,22.00
2023-05-04T08:42:28.805Z,21.50
2023-05-04T08:45:16.294Z,21.50
2023-05-04T08:48:03.882Z,21.30
2023-05-04T08:50:51.108Z,21.50
2023-05-04T08:53:42.688Z,21.70
2023-05-04T08:56:31.696Z,21.30
2023-05-04T08:59:21.224Z,21.80
2023-05-04T09:02:09.602Z,21.30
2023-05-04T09:04:56.296Z,22.20
2023-05-04T09:07:43.069Z,21.50
2023-05-04T09:10:29.993Z,22.10
2023-05-04T09:13:18.058Z,22.60
2023-05-04T09:16:05.541Z,22.20
2023-05-04T09:18:52.393Z,22.20
2023-05-04T09:21:39.134Z,22.00
2023-05-04T09:24:29.202Z,22.40
2023-05-04T09:27:18.046Z,22.90
2023-05-04T09:30:07.488Z,22.50
2023-05-04T09:32:54.306Z,22.20
2023-05-04T09:35:42.346Z,22.40
2023-05-04T09:38:29.119Z,22.10
2023-05-04T09:41:15.850Z,22.50
2023-05-04T09:44:03.410Z,22.80
2023-05-04T09:46:56.437Z,23.10
2023-05-04T09:49:42.754Z,23.10
2023-05-04T09:52:33.403Z,23.00
2023-05-04T09:55:21.435Z,23.40
2023-05-04T09:58:09.026Z,24.00
2023-05-04T10:00:55.852Z,23.00
2023-05-04T10:03:45.122Z,23.20
2023-05-04T10:06:31.737Z,23.70
2023-05-04T10:09:20.341Z,23.30
2023-05-04T10:12:07.636Z,23.50
2023-05-04T10:14:54.391Z,23.50
2023-05-04T10:18:01.080Z,23.10
2023-05-04T10:21:18.299Z,23.50
2023-05-04T10:24:28.860Z,23.50
2023-05-04T10:27:17.127Z,23.50
2023-05-04T10:30:05.011Z,23.50
2023-05-04T10:32:57.260Z,24.10
2023-05-04T10:35:52.881Z,23.90
2023-05-04T10:38:41.334Z,23.80
2023-05-04T10:41:28.034Z,23.60
2023-05-04T10:44:14.528Z,24.30
2023-05-04T10:47:03.164Z,24.80
2023-05-04T10:49:50.113Z,24.50
2023-05-04T10:52:51.138Z,24.30
2023-05-04T10:55:43.403Z,24.60
2023-05-04T10:58:30.535Z,24.40
2023-05-04T11:01:18.370Z,24.50
2023-05-04T11:04:05.702Z,24.30
2023-05-04T11:06:59.804Z,24.60
2023-05-04T11:09:46.369Z,24.70
2023-05-04T11:12:34.321Z,24.30
2023-05-04T11:15:22.905Z,24.30
2023-05-04T11:18:09.599Z,24.30
2023-05-04T11:20:57.068Z,24.00
2023-05-04T11:23:43.663Z,24.40
2023-05-04T11:26:30.439Z,24.20
2023-05-04T11:29:19.354Z,24.30
2023-05-04T11:32:06.389Z,24.50
2023-05-04T11:34:53.382Z,24.70
2023-05-04T11:37:41.316Z,24.60
2023-05-04T11:40:28.387Z,24.80
2023-05-04T11:43:15.024Z,24.70
2023-05-04T11:46:03.850Z,24.60
2023-05-04T11:48:51.479Z,24.30
2023-05-04T11:51:51.372Z,24.40
2023-05-04T11:54:38.147Z,24.30
2023-05-04T11:57:25.115Z,24.20
2023-05-04T12:00:14.573Z,24.60
2023-05-04T12:03:03.117Z,24.40
2023-05-04T12:05:51.280Z,24.40
2023-05-04T12:08:42.127Z,24.60
2023-05-04T12:11:28.974Z,24.90
2023-05-04T12:14:17.063Z,25.30
2023-05-04T12:17:03.955Z,25.10
2023-05-04T12:19:54.935Z,24.80
2023-05-04T12:22:41.819Z,24.40
2023-05-04T12:25:28.436Z,24.60
2023-05-04T12:28:15.130Z,24.60
2023-05-04T12:31:01.621Z,24.60
2023-05-04T12:33:48.529Z,24.70
2023-05-04T12:36:36.728Z,24.40
2023-05-04T12:39:24.090Z,24.40
2023-05-04T12:42:10.920Z,24.40
2023-05-04T12:44:57.368Z,24.30
2023-05-04T12:47:44.020Z,24.30
2023-05-04T12:50:31.013Z,24.40
2023-05-04T12:53:21.567Z,24.30
2023-05-04T12:56:08.248Z,24.40
2023-05-04T12:58:54.891Z,24.30
2023-05-04T13:01:42.223Z,24.30
2023-05-04T13:04:28.992Z,24.10
2023-05-04T13:07:15.764Z,23.80
2023-05-04T13:10:03.762Z,24.00
2023-05-04T13:12:51.127Z,23.80
2023-05-04T13:15:37.703Z,23.60
2023-05-04T13:18:26.974Z,23.70
2023-05-04T13:21:14.217Z,23.60
2023-05-04T13:24:01.626Z,23.70
2023-05-04T13:26:49.424Z,23.80
2023-05-04T13:29:35.914Z,23.80
2023-05-04T13:32:22.305Z,23.90
2023-05-04T13:35:10.108Z,23.90
2023-05-04T13:37:59.682Z,23.90
2023-05-04T13:40:46.384Z,23.90
2023-05-04T13:43:34.089Z,23.80
2023-05-04T13:46:21.339Z,24.00
2023-05-04T13:49:08.277Z,24.00
2023-05-04T13:51:57.285Z,23.90
2023-05-04T13:54:43.905Z,23.90
2023-05-04T13:57:31.566Z,23.90
2023-05-04T14:00:20.670Z,24.00
2023-05-04T14:03:07.688Z,23.90
2023-05-04T14:05:54.422Z,23.90
2023-05-04T14:08:41.534Z,23.90
2023-05-04T14:11:28.479Z,23.90
2023-05-04T14:14:15.249Z,23.80
2023-05-04T14:17:04.091Z,23.80
2023-05-04T14:19:50.754Z,23.90
2023-05-04T14:22:40.966Z,23.80
2023-05-04T14:25:27.571Z,23.80
2023-05-04T14:28:14.960Z,23.90
2023-05-04T14:31:08.693Z,23.70
2023-05-04T14:34:07.855Z,23.80
2023-05-04T14:36:54.353Z,23.80
2023-05-04T14:39:41.147Z,23.80
2023-05-04T14:42:27.457Z,23.80
2023-05-04T14:45:14.292Z,23.90
2023-05-04T14:48:01.035Z,23.90
2023-05-04T14:50:49.223Z,23.80
2023-05-04T14:53:39.286Z,24.00
2023-05-04T14:56:26.247Z,24.00
2023-05-04T14:59:13.465Z,24.00
2023-05-04T15:02:00.231Z,24.00
2023-05-04T15:04:47.107Z,24.00
2023-05-04T15:07:35.460Z,24.00
2023-05-04T15:10:22.045Z,24.10
2023-05-04T15:13:08.670Z,24.00
2023-05-04T15:15:55.565Z,24.00
2023-05-04T15:18:42.565Z,24.10
2023-05-04T15:21:29.517Z,24.00
2023-05-04T15:24:17.356Z,24.00
2023-05-04T15:27:04.158Z,24.00
2023-05-04T15:29:50.966Z,23.90
2023-05-04T15:32:37.338Z,23.70
2023-05-04T15:35:24.013Z,23.60
2023-05-04T15:38:10.645Z,23.60
2023-05-04T15:40:58.419Z,23.60
2023-05-04T15:43:44.923Z,23.50
2023-05-04T15:46:31.260Z,23.50
2023-05-04T15:49:19.133Z,23.50
2023-05-04T15:52:06.044Z,23.60
2023-05-04T15:54:52.533Z,23.60
2023-05-04T15:57:41.014Z,23.60
2023-05-04T16:00:28.187Z,23.60
2023-05-04T16:03:14.980Z,23.60
2023-05-04T16:06:02.073Z,23.50
2023-05-04T16:08:48.987Z,23.40
2023-05-04T16:11:36.830Z,23.40
2023-05-04T16:14:24.795Z,23.40
2023-05-04T16:17:11.231Z,23.40
2023-05-04T16:19:57.684Z,23.40
2023-05-04T16:22:44.609Z,23.30
2023-05-04T16:25:30.834Z,23.30
2023-05-04T16:28:17.273Z,23.30
2023-05-04T16:31:06.046Z,23.30
2023-05-04T16:33:53.393Z,23.30
2023-05-04T16:36:39.772Z,23.30
2023-05-04T16:39:30.040Z,23.30
2023-05-04T16:42:16.654Z,23.30
2023-05-04T16:45:05.081Z,23.30
2023-05-04T16:47:53.327Z,23.30
2023-05-04T16:50:40.086Z,23.30
2023-05-04T16:53:26.537Z,23.30
2023-05-04T16:56:18.038Z,23.30
2023-05-04T16:59:04.645Z,23.20
2023-05-04T17:01:51.192Z,23.20
2023-05-04T17:04:39.269Z,23.20
2023-05-04T17:07:25.780Z,23.10
2023-05-04T17:10:12.825Z,23.10
2023-05-04T17:13:00.929Z,23.00
2023-05-04T17:15:48.792Z,23.00
2023-05-04T17:18:35.907Z,22.90
2023-05-04T17:21:23.783Z,22.80
2023-05-04T17:24:10.131Z,22.80
2023-05-04T17:26:57.215Z,22.70
2023-05-04T17:29:44.086Z,22.70
2023-05-04T17:32:31.196Z,22.70
2023-05-04T17:35:25.390Z,22.70
2023-05-04T17:38:13.928Z,22.70
2023-05-04T17:41:00.435Z,22.60
2023-05-04T17:43:50.122Z,22.50
2023-05-04T17:46:37.260Z,22.50
2023-05-04T17:49:23.597Z,22.40
2023-05-04T17:52:11.398Z,22.40
2023-05-04T17:55:01.094Z,22.30
2023-05-04T17:57:47.960Z,22.30
2023-05-04T18:00:34.526Z,22.20
2023-05-04T18:03:21.485Z,22.20
2023-05-04T18:06:09.042Z,22.10
2023-05-04T18:08:55.618Z,22.10
2023-05-04T18:11:43.930Z,22.00
2023-05-04T18:14:30.842Z,22.00
2023-05-04T18:17:17.078Z,21.80
2023-05-04T18:20:04.211Z,21.60
2023-05-04T18:22:51.124Z,21.30
2023-05-04T18:25:38.379Z,21.10
2023-05-04T18:28:26.211Z,20.90
2023-05-04T18:31:12.871Z,20.90
2023-05-04T18:34:02.416Z,20.80
2023-05-04T18:36:49.437Z,20.80
2023-05-04T18:39:36.469Z,20.70
2023-05-04T18:42:23.150Z,20.70
2023-05-04T18:45:12.860Z,20.70
2023-05-04T18:47:59.765Z,20.70
2023-05-04T18:50:53.865Z,20.80
2023-05-04T18:53:40.777Z,20.70
2023-05-04T18:56:27.992Z,20.60
2023-05-04T18:59:14.861Z,20.50
2023-05-04T19:02:02.933Z,20.50
2023-05-04T19:04:49.735Z,20.50
2023-05-04T19:07:36.925Z,20.50
2023-05-04T19:10:23.821Z,20.40
2023-05-04T19:13:10.353Z,20.30
2023-05-04T19:15:57.318Z,20.30
2023-05-04T19:18:45.599Z,20.10
2023-05-04T19:21:32.048Z,20.00
2023-05-04T19:24:18.698Z,19.90
2023-05-04T19:27:05.408Z,19.70
2023-05-04T19:29:52.030Z,19.60
2023-05-04T19:32:38.885Z,19.40
2023-05-04T19:35:26.830Z,19.10
2023-05-04T19:38:13.746Z,19.10
2023-05-04T19:41:01.637Z,18.90
2023-05-04T19:43:48.315Z,18.70
2023-05-04T19:46:35.277Z,18.50
2023-05-04T19:49:22.743Z,18.20
2023-05-04T19:52:10.974Z,18.10
2023-05-04T19:54:57.474Z,17.90
2023-05-04T19:57:44.082Z,17.70
2023-05-04T20:00:30.940Z,17.60
2023-05-04T20:03:18.603Z,17.30
2023-05-04T20:06:05.744Z,17.30
2023-05-04T20:08:55.002Z,17.20
2023-05-04T20:11:41.540Z,17.30
2023-05-04T20:14:27.982Z,17.20
2023-05-04T20:17:15.617Z,17.30
2023-05-04T20:20:03.679Z,17.40
2023-05-04T20:22:52.527Z,17.50
2023-05-04T20:25:40.344Z,17.60
2023-05-04T20:28:26.800Z,17.60
2023-05-04T20:31:13.238Z,17.70
2023-05-04T20:33:59.546Z,17.70
2023-05-04T20:36:46.966Z,17.90
2023-05-04T20:39:33.581Z,17.90
2023-05-04T20:42:21.913Z,17.90
2023-05-04T20:45:09.882Z,18.00
2023-05-04T20:47:56.527Z,17.90
2023-05-04T20:50:43.739Z,17.80
2023-05-04T20:53:36.101Z,17.70
2023-05-04T20:56:22.950Z,17.60
2023-05-04T20:59:11.054Z,17.50
2023-05-04T21:01:57.537Z,17.40
2023-05-04T21:04:48.455Z,17.40
2023-05-04T21:07:34.742Z,17.30
2023-05-04T21:10:21.695Z,17.20
2023-05-04T21:13:08.178Z,17.10
2023-05-04T21:15:56.385Z,17.10
2023-05-04T21:18:44.638Z,17.10
2023-05-04T21:21:34.672Z,16.90
2023-05-04T21:24:21.067Z,17.00
2023-05-04T21:27:07.949Z,17.00
2023-05-04T21:29:54.917Z,17.00
2023-05-04T21:32:42.753Z,16.90
2023-05-04T21:35:30.866Z,16.80
2023-05-04T21:38:19.576Z,16.90
2023-05-04T21:41:12.597Z,16.80
2023-05-04T21:43:59.156Z,16.80
2023-05-04T21:46:46.182Z,16.60
2023-05-04T21:49:34.420Z,16.50
2023-05-04T21:52:21.943Z,16.30
2023-05-04T21:55:09.057Z,15.90
2023-05-04T21:57:56.074Z,15.60
2023-05-04T22:00:43.861Z,15.50
2023-05-04T22:03:30.539Z,15.50
2023-05-04T22:06:21.477Z,15.60
2023-05-04T22:09:08.952Z,15.70
2023-05-04T22:11:55.706Z,15.60
2023-05-04T22:14:42.684Z,15.50
2023-05-04T22:17:29.587Z,15.70
2023-05-04T22:20:16.604Z,15.80
2023-05-04T22:23:04.605Z,15.60
2023-05-04T22:25:51.443Z,15.60
2023-05-04T22:28:37.984Z,15.90
2023-05-04T22:31:24.860Z,16.00
2023-05-04T22:34:11.629Z,16.00
2023-05-04T22:36:58.178Z,16.00
2023-05-04T22:39:45.888Z,16.00
2023-05-04T22:42:32.782Z,15.90
2023-05-04T22:45:19.384Z,15.90
2023-05-04T22:48:06.241Z,15.90
2023-05-04T22:50:53.183Z,15.90
2023-05-04T22:53:40.447Z,15.90
2023-05-04T22:56:28.479Z,15.80
2023-05-04T22:59:14.990Z,15.80
2023-05-04T23:02:02.029Z,15.80
2023-05-04T23:04:49.068Z,15.60
2023-05-04T23:07:36.128Z,15.50
2023-05-04T23:10:22.997Z,15.20
2023-05-04T23:13:11.540Z,15.10
2023-05-04T23:15:58.063Z,15.00
2023-05-04T23:18:45.045Z,14.80
2023-05-04T23:21:32.185Z,14.60
2023-05-04T23:24:18.772Z,14.60
2023-05-04T23:27:05.269Z,14.60
2023-05-04T23:29:53.271Z,14.70
2023-05-04T23:32:40.112Z,14.70
2023-05-04T23:35:28.102Z,14.80
2023-05-04T23:38:14.580Z,14.50
2023-05-04T23:41:03.366Z,14.50
2023-05-04T23:43:49.975Z,14.60
2023-05-04T23:46:37.683Z,14.70
2023-05-04T23:49:24.360Z,14.90
2023-05-04T23:52:10.658Z,14.80
2023-05-04T23:54:56.947Z,14.70
2023-05-04T23:57:44.550Z,14.80
